sensor_id;sensor_type;location;lat;lon;timestamp;temperature;humidity
22698;DHT22;11516;51.612;7.510;2022-07-26T00:00:53;20.50;84.80
22698;DHT22;11516;51.612;7.510;2022-07-26T00:03:19;20.50;84.90
22698;DHT22;11516;51.612;7.510;2022-07-26T00:05:44;20.50;85.20
22698;DHT22;11516;51.612;7.510;2022-07-26T00:08:10;20.50;85.20
22698;DHT22;11516;51.612;7.510;2022-07-26T00:10:44;20.50;85.50
22698;DHT22;11516;51.612;7.510;2022-07-26T00:13:10;20.50;85.60
22698;DHT22;11516;51.612;7.510;2022-07-26T00:15:37;20.50;85.50
22698;DHT22;11516;51.612;7.510;2022-07-26T00:18:04;20.50;85.90
22698;DHT22;11516;51.612;7.510;2022-07-26T00:20:30;20.50;85.80
22698;DHT22;11516;51.612;7.510;2022-07-26T00:22:55;20.40;86.00
22698;DHT22;11516;51.612;7.510;2022-07-26T00:25:21;20.40;86.20
22698;DHT22;11516;51.612;7.510;2022-07-26T00:27:47;20.40;86.40
22698;DHT22;11516;51.612;7.510;2022-07-26T00:30:13;20.40;86.40
22698;DHT22;11516;51.612;7.510;2022-07-26T00:32:38;20.40;86.70
22698;DHT22;11516;51.612;7.510;2022-07-26T00:35:05;20.40;86.80
22698;DHT22;11516;51.612;7.510;2022-07-26T00:37:31;20.40;86.80
22698;DHT22;11516;51.612;7.510;2022-07-26T00:39:57;20.40;87.10
22698;DHT22;11516;51.612;7.510;2022-07-26T00:42:22;20.20;87.20
22698;DHT22;11516;51.612;7.510;2022-07-26T00:44:50;20.40;87.30
22698;DHT22;11516;51.612;7.510;2022-07-26T00:47:16;20.20;87.50
22698;DHT22;11516;51.612;7.510;2022-07-26T00:49:42;20.20;87.60
22698;DHT22;11516;51.612;7.510;2022-07-26T00:52:09;20.20;88.00
22698;DHT22;11516;51.612;7.510;2022-07-26T00:54:36;20.10;88.10
22698;DHT22;11516;51.612;7.510;2022-07-26T00:57:03;20.10;88.30
22698;DHT22;11516;51.612;7.510;2022-07-26T00:59:28;20.10;88.50
22698;DHT22;11516;51.612;7.510;2022-07-26T01:01:54;20.00;88.70
22698;DHT22;11516;51.612;7.510;2022-07-26T01:04:26;20.00;89.20
22698;DHT22;11516;51.612;7.510;2022-07-26T01:07:13;19.90;89.10
22698;DHT22;11516;51.612;7.510;2022-07-26T01:09:41;19.90;89.40
22698;DHT22;11516;51.612;7.510;2022-07-26T01:12:07;19.90;89.50
22698;DHT22;11516;51.612;7.510;2022-07-26T01:14:33;19.90;89.50
22698;DHT22;11516;51.612;7.510;2022-07-26T01:16:58;19.90;90.00
22698;DHT22;11516;51.612;7.510;2022-07-26T01:19:24;19.80;90.00
22698;DHT22;11516;51.612;7.510;2022-07-26T01:21:50;19.70;90.40
22698;DHT22;11516;51.612;7.510;2022-07-26T01:24:16;19.70;90.10
22698;DHT22;11516;51.612;7.510;2022-07-26T01:26:42;19.70;90.30
22698;DHT22;11516;51.612;7.510;2022-07-26T01:29:08;19.60;90.50
22698;DHT22;11516;51.612;7.510;2022-07-26T01:31:34;19.60;90.50
22698;DHT22;11516;51.612;7.510;2022-07-26T01:33:59;19.60;90.60
22698;DHT22;11516;51.612;7.510;2022-07-26T01:36:25;19.50;90.70
22698;DHT22;11516;51.612;7.510;2022-07-26T01:38:50;19.60;90.80
22698;DHT22;11516;51.612;7.510;2022-07-26T01:41:16;19.40;90.80
22698;DHT22;11516;51.612;7.510;2022-07-26T01:43:42;19.50;90.90
22698;DHT22;11516;51.612;7.510;2022-07-26T01:46:08;19.40;91.10
22698;DHT22;11516;51.612;7.510;2022-07-26T01:48:34;19.50;91.10
22698;DHT22;11516;51.612;7.510;2022-07-26T01:51:00;19.60;91.00
22698;DHT22;11516;51.612;7.510;2022-07-26T01:53:26;19.40;91.20
22698;DHT22;11516;51.612;7.510;2022-07-26T01:55:51;19.40;91.40
22698;DHT22;11516;51.612;7.510;2022-07-26T01:58:17;19.30;91.50
22698;DHT22;11516;51.612;7.510;2022-07-26T02:00:43;19.20;91.50
22698;DHT22;11516;51.612;7.510;2022-07-26T02:03:09;19.20;91.70
22698;DHT22;11516;51.612;7.510;2022-07-26T02:05:34;19.10;91.80
22698;DHT22;11516;51.612;7.510;2022-07-26T02:08:00;19.20;91.80
22698;DHT22;11516;51.612;7.510;2022-07-26T02:10:26;19.20;91.80
22698;DHT22;11516;51.612;7.510;2022-07-26T02:13:12;19.20;91.70
22698;DHT22;11516;51.612;7.510;2022-07-26T02:15:39;19.20;91.90
22698;DHT22;11516;51.612;7.510;2022-07-26T02:18:04;19.20;91.80
22698;DHT22;11516;51.612;7.510;2022-07-26T02:20:30;19.20;91.90
22698;DHT22;11516;51.612;7.510;2022-07-26T02:22:59;19.20;92.10
22698;DHT22;11516;51.612;7.510;2022-07-26T02:25:25;19.30;91.90
22698;DHT22;11516;51.612;7.510;2022-07-26T02:27:50;19.20;92.10
22698;DHT22;11516;51.612;7.510;2022-07-26T02:30:16;19.20;92.00
22698;DHT22;11516;51.612;7.510;2022-07-26T02:32:41;19.20;92.10
22698;DHT22;11516;51.612;7.510;2022-07-26T02:35:08;19.20;92.30
22698;DHT22;11516;51.612;7.510;2022-07-26T02:37:33;19.20;92.20
22698;DHT22;11516;51.612;7.510;2022-07-26T02:39:59;19.30;92.20
22698;DHT22;11516;51.612;7.510;2022-07-26T02:42:25;19.30;92.30
22698;DHT22;11516;51.612;7.510;2022-07-26T02:44:50;19.40;92.00
22698;DHT22;11516;51.612;7.510;2022-07-26T02:47:16;19.30;92.10
22698;DHT22;11516;51.612;7.510;2022-07-26T02:49:41;19.40;92.20
22698;DHT22;11516;51.612;7.510;2022-07-26T02:52:07;19.40;92.30
22698;DHT22;11516;51.612;7.510;2022-07-26T02:54:32;19.40;92.10
22698;DHT22;11516;51.612;7.510;2022-07-26T02:56:58;19.40;92.20
22698;DHT22;11516;51.612;7.510;2022-07-26T02:59:23;19.30;92.30
22698;DHT22;11516;51.612;7.510;2022-07-26T03:01:49;19.30;92.30
22698;DHT22;11516;51.612;7.510;2022-07-26T03:04:14;19.30;92.50
22698;DHT22;11516;51.612;7.510;2022-07-26T03:06:40;19.30;92.40
22698;DHT22;11516;51.612;7.510;2022-07-26T03:09:05;19.30;92.40
22698;DHT22;11516;51.612;7.510;2022-07-26T03:11:31;19.30;92.50
22698;DHT22;11516;51.612;7.510;2022-07-26T03:13:56;19.40;92.40
22698;DHT22;11516;51.612;7.510;2022-07-26T03:16:22;19.40;92.80
22698;DHT22;11516;51.612;7.510;2022-07-26T03:18:47;19.40;92.70
22698;DHT22;11516;51.612;7.510;2022-07-26T03:21:13;19.40;92.80
22698;DHT22;11516;51.612;7.510;2022-07-26T03:23:38;19.40;92.80
22698;DHT22;11516;51.612;7.510;2022-07-26T03:26:04;19.40;92.80
22698;DHT22;11516;51.612;7.510;2022-07-26T03:28:30;19.30;93.00
22698;DHT22;11516;51.612;7.510;2022-07-26T03:30:56;19.30;93.20
22698;DHT22;11516;51.612;7.510;2022-07-26T03:33:22;19.20;93.30
22698;DHT22;11516;51.612;7.510;2022-07-26T03:35:47;19.20;93.40
22698;DHT22;11516;51.612;7.510;2022-07-26T03:38:13;19.20;93.60
22698;DHT22;11516;51.612;7.510;2022-07-26T03:40:38;19.20;93.60
22698;DHT22;11516;51.612;7.510;2022-07-26T03:43:04;19.20;93.70
22698;DHT22;11516;51.612;7.510;2022-07-26T03:45:29;19.20;93.70
22698;DHT22;11516;51.612;7.510;2022-07-26T03:47:55;19.20;93.80
22698;DHT22;11516;51.612;7.510;2022-07-26T03:50:21;19.20;94.00
22698;DHT22;11516;51.612;7.510;2022-07-26T03:52:46;19.20;94.20
22698;DHT22;11516;51.612;7.510;2022-07-26T03:55:12;19.20;94.40
22698;DHT22;11516;51.612;7.510;2022-07-26T03:57:56;19.20;94.30
22698;DHT22;11516;51.612;7.510;2022-07-26T04:00:22;19.20;94.40
22698;DHT22;11516;51.612;7.510;2022-07-26T04:02:47;19.10;94.40
22698;DHT22;11516;51.612;7.510;2022-07-26T04:05:13;19.10;94.60
22698;DHT22;11516;51.612;7.510;2022-07-26T04:07:45;19.10;94.80
22698;DHT22;11516;51.612;7.510;2022-07-26T04:10:11;19.20;94.60
22698;DHT22;11516;51.612;7.510;2022-07-26T04:12:37;19.20;94.80
22698;DHT22;11516;51.612;7.510;2022-07-26T04:15:04;19.20;94.70
22698;DHT22;11516;51.612;7.510;2022-07-26T04:17:36;19.10;94.80
22698;DHT22;11516;51.612;7.510;2022-07-26T04:20:02;19.20;94.90
22698;DHT22;11516;51.612;7.510;2022-07-26T04:22:28;19.20;95.00
22698;DHT22;11516;51.612;7.510;2022-07-26T04:24:53;19.20;95.10
22698;DHT22;11516;51.612;7.510;2022-07-26T04:27:19;19.20;95.30
22698;DHT22;11516;51.612;7.510;2022-07-26T04:29:44;19.10;95.90
22698;DHT22;11516;51.612;7.510;2022-07-26T04:32:10;19.00;97.00
22698;DHT22;11516;51.612;7.510;2022-07-26T04:34:36;18.80;97.70
22698;DHT22;11516;51.612;7.510;2022-07-26T04:37:01;18.50;99.30
22698;DHT22;11516;51.612;7.510;2022-07-26T04:39:27;18.30;99.90
22698;DHT22;11516;51.612;7.510;2022-07-26T04:41:52;18.20;99.90
22698;DHT22;11516;51.612;7.510;2022-07-26T04:44:18;18.10;99.90
22698;DHT22;11516;51.612;7.510;2022-07-26T04:46:43;18.10;99.90
22698;DHT22;11516;51.612;7.510;2022-07-26T04:49:09;18.00;99.90
22698;DHT22;11516;51.612;7.510;2022-07-26T04:51:34;17.90;99.90
22698;DHT22;11516;51.612;7.510;2022-07-26T04:54:00;17.80;99.90
22698;DHT22;11516;51.612;7.510;2022-07-26T04:56:25;17.70;99.90
22698;DHT22;11516;51.612;7.510;2022-07-26T04:58:51;17.60;99.90
22698;DHT22;11516;51.612;7.510;2022-07-26T05:01:16;17.60;99.90
22698;DHT22;11516;51.612;7.510;2022-07-26T05:03:42;17.50;99.90
22698;DHT22;11516;51.612;7.510;2022-07-26T05:06:07;17.40;99.90
22698;DHT22;11516;51.612;7.510;2022-07-26T05:08:33;17.40;99.90
22698;DHT22;11516;51.612;7.510;2022-07-26T05:10:59;17.40;99.90
22698;DHT22;11516;51.612;7.510;2022-07-26T05:13:24;17.30;99.90
22698;DHT22;11516;51.612;7.510;2022-07-26T05:15:50;17.30;99.90
22698;DHT22;11516;51.612;7.510;2022-07-26T05:18:15;17.30;99.90
22698;DHT22;11516;51.612;7.510;2022-07-26T05:20:41;17.20;99.90
22698;DHT22;11516;51.612;7.510;2022-07-26T05:23:07;17.30;99.90
22698;DHT22;11516;51.612;7.510;2022-07-26T05:25:32;17.30;99.90
22698;DHT22;11516;51.612;7.510;2022-07-26T05:27:58;17.30;99.90
22698;DHT22;11516;51.612;7.510;2022-07-26T05:30:24;17.20;99.90
22698;DHT22;11516;51.612;7.510;2022-07-26T05:32:49;17.30;99.90
22698;DHT22;11516;51.612;7.510;2022-07-26T05:35:15;17.40;99.90
22698;DHT22;11516;51.612;7.510;2022-07-26T05:37:40;17.40;99.90
22698;DHT22;11516;51.612;7.510;2022-07-26T05:40:06;17.40;99.90
22698;DHT22;11516;51.612;7.510;2022-07-26T05:42:32;17.40;99.90
22698;DHT22;11516;51.612;7.510;2022-07-26T05:44:58;17.50;99.90
22698;DHT22;11516;51.612;7.510;2022-07-26T05:47:24;17.60;99.90
22698;DHT22;11516;51.612;7.510;2022-07-26T05:49:49;17.60;99.90
22698;DHT22;11516;51.612;7.510;2022-07-26T05:52:15;17.60;99.90
22698;DHT22;11516;51.612;7.510;2022-07-26T05:54:40;17.60;99.90
22698;DHT22;11516;51.612;7.510;2022-07-26T05:57:06;17.70;99.90
22698;DHT22;11516;51.612;7.510;2022-07-26T05:59:31;17.90;99.90
22698;DHT22;11516;51.612;7.510;2022-07-26T06:01:57;18.00;99.90
22698;DHT22;11516;51.612;7.510;2022-07-26T06:04:23;17.90;99.90
22698;DHT22;11516;51.612;7.510;2022-07-26T06:06:49;17.90;99.90
22698;DHT22;11516;51.612;7.510;2022-07-26T06:09:15;18.00;99.90
22698;DHT22;11516;51.612;7.510;2022-07-26T06:11:40;17.90;99.90
22698;DHT22;11516;51.612;7.510;2022-07-26T06:14:06;18.00;99.90
22698;DHT22;11516;51.612;7.510;2022-07-26T06:16:31;18.00;99.90
22698;DHT22;11516;51.612;7.510;2022-07-26T06:18:57;18.10;99.90
22698;DHT22;11516;51.612;7.510;2022-07-26T06:21:23;18.10;99.90
22698;DHT22;11516;51.612;7.510;2022-07-26T06:23:48;18.10;99.90
22698;DHT22;11516;51.612;7.510;2022-07-26T06:26:15;18.10;99.90
22698;DHT22;11516;51.612;7.510;2022-07-26T06:28:41;18.20;99.90
22698;DHT22;11516;51.612;7.510;2022-07-26T06:31:08;18.20;99.90
22698;DHT22;11516;51.612;7.510;2022-07-26T06:33:34;18.20;99.90
22698;DHT22;11516;51.612;7.510;2022-07-26T06:35:59;18.20;99.90
22698;DHT22;11516;51.612;7.510;2022-07-26T06:38:25;18.20;99.90
22698;DHT22;11516;51.612;7.510;2022-07-26T06:40:51;18.10;99.90
22698;DHT22;11516;51.612;7.510;2022-07-26T06:43:16;18.10;99.90
22698;DHT22;11516;51.612;7.510;2022-07-26T06:45:42;18.10;99.90
22698;DHT22;11516;51.612;7.510;2022-07-26T06:48:07;18.10;99.90
22698;DHT22;11516;51.612;7.510;2022-07-26T06:50:33;18.20;99.90
22698;DHT22;11516;51.612;7.510;2022-07-26T06:52:59;18.30;99.90
22698;DHT22;11516;51.612;7.510;2022-07-26T06:55:24;18.30;99.90
22698;DHT22;11516;51.612;7.510;2022-07-26T06:57:50;18.30;99.90
22698;DHT22;11516;51.612;7.510;2022-07-26T07:00:16;18.40;99.90
22698;DHT22;11516;51.612;7.510;2022-07-26T07:02:42;18.40;99.90
22698;DHT22;11516;51.612;7.510;2022-07-26T07:05:07;18.50;99.90
22698;DHT22;11516;51.612;7.510;2022-07-26T07:07:34;18.60;99.90
22698;DHT22;11516;51.612;7.510;2022-07-26T07:10:01;18.80;99.90
22698;DHT22;11516;51.612;7.510;2022-07-26T07:12:26;18.90;99.90
22698;DHT22;11516;51.612;7.510;2022-07-26T07:14:52;18.90;99.90
22698;DHT22;11516;51.612;7.510;2022-07-26T07:17:18;19.00;99.90
22698;DHT22;11516;51.612;7.510;2022-07-26T07:19:44;19.10;99.90
22698;DHT22;11516;51.612;7.510;2022-07-26T07:22:10;19.30;99.90
22698;DHT22;11516;51.612;7.510;2022-07-26T07:24:36;19.30;99.90
22698;DHT22;11516;51.612;7.510;2022-07-26T07:27:02;19.40;99.90
22698;DHT22;11516;51.612;7.510;2022-07-26T07:29:28;19.40;99.90
22698;DHT22;11516;51.612;7.510;2022-07-26T07:31:53;19.40;99.90
22698;DHT22;11516;51.612;7.510;2022-07-26T07:34:21;19.50;99.90
22698;DHT22;11516;51.612;7.510;2022-07-26T07:36:50;19.60;99.90
22698;DHT22;11516;51.612;7.510;2022-07-26T07:39:19;19.70;99.90
22698;DHT22;11516;51.612;7.510;2022-07-26T07:41:45;19.90;99.90
22698;DHT22;11516;51.612;7.510;2022-07-26T07:44:12;19.90;99.90
22698;DHT22;11516;51.612;7.510;2022-07-26T07:46:37;19.80;99.90
22698;DHT22;11516;51.612;7.510;2022-07-26T07:49:06;19.90;99.90
22698;DHT22;11516;51.612;7.510;2022-07-26T07:51:32;19.90;99.90
22698;DHT22;11516;51.612;7.510;2022-07-26T07:53:58;19.90;99.90
22698;DHT22;11516;51.612;7.510;2022-07-26T07:56:24;19.80;99.90
22698;DHT22;11516;51.612;7.510;2022-07-26T07:58:50;19.80;99.90
22698;DHT22;11516;51.612;7.510;2022-07-26T08:01:16;19.80;99.90
22698;DHT22;11516;51.612;7.510;2022-07-26T08:03:41;19.80;99.90
22698;DHT22;11516;51.612;7.510;2022-07-26T08:06:07;19.80;99.90
22698;DHT22;11516;51.612;7.510;2022-07-26T08:08:34;19.90;99.90
22698;DHT22;11516;51.612;7.510;2022-07-26T08:11:00;19.90;99.90
22698;DHT22;11516;51.612;7.510;2022-07-26T08:13:26;19.90;99.90
22698;DHT22;11516;51.612;7.510;2022-07-26T08:15:53;20.10;99.90
22698;DHT22;11516;51.612;7.510;2022-07-26T08:18:20;20.10;99.90
22698;DHT22;11516;51.612;7.510;2022-07-26T08:20:45;20.10;99.90
22698;DHT22;11516;51.612;7.510;2022-07-26T08:23:11;20.20;99.90
22698;DHT22;11516;51.612;7.510;2022-07-26T08:25:37;20.30;99.90
22698;DHT22;11516;51.612;7.510;2022-07-26T08:28:02;20.60;99.90
22698;DHT22;11516;51.612;7.510;2022-07-26T08:30:28;20.60;99.90
22698;DHT22;11516;51.612;7.510;2022-07-26T08:32:54;20.60;99.90
22698;DHT22;11516;51.612;7.510;2022-07-26T08:35:19;20.80;99.90
22698;DHT22;11516;51.612;7.510;2022-07-26T08:37:46;21.00;99.90
22698;DHT22;11516;51.612;7.510;2022-07-26T08:40:12;21.30;99.90
22698;DHT22;11516;51.612;7.510;2022-07-26T08:42:37;21.20;99.90
22698;DHT22;11516;51.612;7.510;2022-07-26T08:45:03;21.40;99.90
22698;DHT22;11516;51.612;7.510;2022-07-26T08:47:29;21.30;99.90
22698;DHT22;11516;51.612;7.510;2022-07-26T08:49:54;21.30;99.90
22698;DHT22;11516;51.612;7.510;2022-07-26T08:52:20;21.40;99.90
22698;DHT22;11516;51.612;7.510;2022-07-26T08:54:51;21.40;99.90
22698;DHT22;11516;51.612;7.510;2022-07-26T08:57:17;21.30;99.90
22698;DHT22;11516;51.612;7.510;2022-07-26T08:59:43;21.20;99.90
22698;DHT22;11516;51.612;7.510;2022-07-26T09:02:10;21.20;99.90
22698;DHT22;11516;51.612;7.510;2022-07-26T09:04:39;21.20;99.90
22698;DHT22;11516;51.612;7.510;2022-07-26T09:07:09;21.60;99.90
22698;DHT22;11516;51.612;7.510;2022-07-26T09:09:38;21.80;99.40
22698;DHT22;11516;51.612;7.510;2022-07-26T09:12:18;21.80;99.40
22698;DHT22;11516;51.612;7.510;2022-07-26T09:14:44;21.80;99.80
22698;DHT22;11516;51.612;7.510;2022-07-26T09:17:15;21.90;97.70
22698;DHT22;11516;51.612;7.510;2022-07-26T09:19:41;22.20;96.60
22698;DHT22;11516;51.612;7.510;2022-07-26T09:22:16;22.40;95.90
22698;DHT22;11516;51.612;7.510;2022-07-26T09:24:44;22.40;95.90
22698;DHT22;11516;51.612;7.510;2022-07-26T09:27:12;22.20;95.00
22698;DHT22;11516;51.612;7.510;2022-07-26T09:32:14;22.40;94.10
22698;DHT22;11516;51.612;7.510;2022-07-26T09:34:45;22.60;94.10
22698;DHT22;11516;51.612;7.510;2022-07-26T09:37:11;22.60;94.00
22698;DHT22;11516;51.612;7.510;2022-07-26T09:39:56;22.40;94.50
22698;DHT22;11516;51.612;7.510;2022-07-26T09:42:23;22.10;94.80
22698;DHT22;11516;51.612;7.510;2022-07-26T09:44:49;22.10;94.90
22698;DHT22;11516;51.612;7.510;2022-07-26T09:47:15;22.10;94.40
22698;DHT22;11516;51.612;7.510;2022-07-26T09:49:41;22.00;94.20
22698;DHT22;11516;51.612;7.510;2022-07-26T09:52:17;22.30;94.20
22698;DHT22;11516;51.612;7.510;2022-07-26T09:54:44;22.50;94.00
22698;DHT22;11516;51.612;7.510;2022-07-26T09:57:14;22.50;93.60
22698;DHT22;11516;51.612;7.510;2022-07-26T09:59:40;22.50;93.70
22698;DHT22;11516;51.612;7.510;2022-07-26T10:02:06;22.50;93.10
22698;DHT22;11516;51.612;7.510;2022-07-26T10:04:31;22.40;94.00
22698;DHT22;11516;51.612;7.510;2022-07-26T10:06:57;22.10;95.60
22698;DHT22;11516;51.612;7.510;2022-07-26T10:09:23;21.70;96.40
22698;DHT22;11516;51.612;7.510;2022-07-26T10:11:59;21.30;97.40
22698;DHT22;11516;51.612;7.510;2022-07-26T10:14:38;20.60;98.90
22698;DHT22;11516;51.612;7.510;2022-07-26T10:19:53;20.70;98.80
22698;DHT22;11516;51.612;7.510;2022-07-26T10:22:30;20.80;99.00
22698;DHT22;11516;51.612;7.510;2022-07-26T10:27:47;21.00;99.00
22698;DHT22;11516;51.612;7.510;2022-07-26T10:38:42;19.80;99.90
22698;DHT22;11516;51.612;7.510;2022-07-26T10:40:59;19.50;99.90
22698;DHT22;11516;51.612;7.510;2022-07-26T10:43:26;19.40;99.90
22698;DHT22;11516;51.612;7.510;2022-07-26T10:49:00;19.40;99.90
22698;DHT22;11516;51.612;7.510;2022-07-26T10:51:35;19.40;99.90
22698;DHT22;11516;51.612;7.510;2022-07-26T10:54:06;19.40;99.90
22698;DHT22;11516;51.612;7.510;2022-07-26T10:56:32;19.20;99.90
22698;DHT22;11516;51.612;7.510;2022-07-26T10:58:58;19.10;99.90
22698;DHT22;11516;51.612;7.510;2022-07-26T11:01:39;19.20;99.90
22698;DHT22;11516;51.612;7.510;2022-07-26T11:04:19;19.30;99.90
22698;DHT22;11516;51.612;7.510;2022-07-26T11:06:45;19.40;99.90
22698;DHT22;11516;51.612;7.510;2022-07-26T11:09:10;19.50;99.90
22698;DHT22;11516;51.612;7.510;2022-07-26T11:11:37;19.80;99.90
22698;DHT22;11516;51.612;7.510;2022-07-26T11:14:10;20.00;99.90
22698;DHT22;11516;51.612;7.510;2022-07-26T11:16:40;19.90;99.90
22698;DHT22;11516;51.612;7.510;2022-07-26T11:19:15;20.30;99.90
22698;DHT22;11516;51.612;7.510;2022-07-26T11:21:43;20.20;99.90
22698;DHT22;11516;51.612;7.510;2022-07-26T11:24:09;20.30;99.90
22698;DHT22;11516;51.612;7.510;2022-07-26T11:26:42;20.80;99.90
22698;DHT22;11516;51.612;7.510;2022-07-26T11:29:08;21.00;99.90
22698;DHT22;11516;51.612;7.510;2022-07-26T11:34:03;20.70;99.90
22698;DHT22;11516;51.612;7.510;2022-07-26T11:36:38;20.50;99.90
22698;DHT22;11516;51.612;7.510;2022-07-26T11:39:08;20.30;99.90
22698;DHT22;11516;51.612;7.510;2022-07-26T11:41:35;20.00;99.90
22698;DHT22;11516;51.612;7.510;2022-07-26T11:44:02;20.30;99.90
22698;DHT22;11516;51.612;7.510;2022-07-26T11:46:36;20.20;99.90
22698;DHT22;11516;51.612;7.510;2022-07-26T11:49:03;20.10;99.90
22698;DHT22;11516;51.612;7.510;2022-07-26T11:51:31;20.00;99.90
22698;DHT22;11516;51.612;7.510;2022-07-26T11:53:56;19.90;99.90
22698;DHT22;11516;51.612;7.510;2022-07-26T11:56:26;20.00;99.90
22698;DHT22;11516;51.612;7.510;2022-07-26T11:58:54;19.70;99.90
22698;DHT22;11516;51.612;7.510;2022-07-26T12:01:22;20.00;99.90
22698;DHT22;11516;51.612;7.510;2022-07-26T12:03:50;20.30;99.90
22698;DHT22;11516;51.612;7.510;2022-07-26T12:06:25;20.60;99.90
22698;DHT22;11516;51.612;7.510;2022-07-26T12:11:18;20.20;99.90
22698;DHT22;11516;51.612;7.510;2022-07-26T12:19:04;20.80;99.90
22698;DHT22;11516;51.612;7.510;2022-07-26T12:21:38;21.10;99.90
22698;DHT22;11516;51.612;7.510;2022-07-26T12:24:04;21.00;99.90
22698;DHT22;11516;51.612;7.510;2022-07-26T12:26:30;20.90;99.90
22698;DHT22;11516;51.612;7.510;2022-07-26T12:28:56;20.80;99.90
22698;DHT22;11516;51.612;7.510;2022-07-26T12:31:29;21.60;99.90
22698;DHT22;11516;51.612;7.510;2022-07-26T12:33:55;22.60;97.30
22698;DHT22;11516;51.612;7.510;2022-07-26T12:36:22;23.00;96.80
22698;DHT22;11516;51.612;7.510;2022-07-26T12:38:48;22.70;95.70
22698;DHT22;11516;51.612;7.510;2022-07-26T12:44:00;23.20;95.00
22698;DHT22;11516;51.612;7.510;2022-07-26T12:46:26;22.70;95.60
22698;DHT22;11516;51.612;7.510;2022-07-26T12:48:51;22.80;96.70
22698;DHT22;11516;51.612;7.510;2022-07-26T12:51:17;23.10;94.30
22698;DHT22;11516;51.612;7.510;2022-07-26T12:53:42;22.70;94.40
22698;DHT22;11516;51.612;7.510;2022-07-26T12:56:08;22.60;95.00
22698;DHT22;11516;51.612;7.510;2022-07-26T12:58:33;22.70;94.70
22698;DHT22;11516;51.612;7.510;2022-07-26T13:00:59;22.70;94.00
22698;DHT22;11516;51.612;7.510;2022-07-26T13:03:26;22.20;95.30
22698;DHT22;11516;51.612;7.510;2022-07-26T13:05:52;22.70;95.00
22698;DHT22;11516;51.612;7.510;2022-07-26T13:08:18;23.10;93.00
22698;DHT22;11516;51.612;7.510;2022-07-26T13:10:43;22.20;94.20
22698;DHT22;11516;51.612;7.510;2022-07-26T13:13:09;21.80;95.70
22698;DHT22;11516;51.612;7.510;2022-07-26T13:15:34;21.90;95.20
22698;DHT22;11516;51.612;7.510;2022-07-26T13:18:00;22.20;95.90
22698;DHT22;11516;51.612;7.510;2022-07-26T13:20:25;22.60;95.00
22698;DHT22;11516;51.612;7.510;2022-07-26T13:22:51;22.60;95.00
22698;DHT22;11516;51.612;7.510;2022-07-26T13:25:16;22.50;94.00
22698;DHT22;11516;51.612;7.510;2022-07-26T13:27:42;22.50;94.10
22698;DHT22;11516;51.612;7.510;2022-07-26T13:30:08;23.00;92.70
22698;DHT22;11516;51.612;7.510;2022-07-26T13:32:33;22.80;92.80
22698;DHT22;11516;51.612;7.510;2022-07-26T13:34:59;22.20;94.20
22698;DHT22;11516;51.612;7.510;2022-07-26T13:37:25;21.80;94.70
22698;DHT22;11516;51.612;7.510;2022-07-26T13:39:50;21.70;94.20
22698;DHT22;11516;51.612;7.510;2022-07-26T13:42:16;21.90;94.10
22698;DHT22;11516;51.612;7.510;2022-07-26T13:44:43;22.00;94.20
22698;DHT22;11516;51.612;7.510;2022-07-26T13:47:09;22.20;93.80
22698;DHT22;11516;51.612;7.510;2022-07-26T13:49:35;22.30;93.10
22698;DHT22;11516;51.612;7.510;2022-07-26T13:52:00;22.50;92.70
22698;DHT22;11516;51.612;7.510;2022-07-26T13:54:31;22.50;92.50
22698;DHT22;11516;51.612;7.510;2022-07-26T13:56:58;22.20;93.00
22698;DHT22;11516;51.612;7.510;2022-07-26T13:59:24;22.20;93.60
22698;DHT22;11516;51.612;7.510;2022-07-26T14:01:50;22.40;94.10
22698;DHT22;11516;51.612;7.510;2022-07-26T14:04:16;22.70;93.60
22698;DHT22;11516;51.612;7.510;2022-07-26T14:06:45;22.60;93.40
22698;DHT22;11516;51.612;7.510;2022-07-26T14:09:12;22.60;93.10
22698;DHT22;11516;51.612;7.510;2022-07-26T14:11:38;22.70;93.10
22698;DHT22;11516;51.612;7.510;2022-07-26T14:14:05;22.60;92.00
22698;DHT22;11516;51.612;7.510;2022-07-26T14:16:31;22.50;91.60
22698;DHT22;11516;51.612;7.510;2022-07-26T14:18:57;22.50;91.40
22698;DHT22;11516;51.612;7.510;2022-07-26T14:21:24;22.70;90.00
22698;DHT22;11516;51.612;7.510;2022-07-26T14:23:51;22.50;90.80
22698;DHT22;11516;51.612;7.510;2022-07-26T14:26:17;22.40;90.20
22698;DHT22;11516;51.612;7.510;2022-07-26T14:28:44;22.40;90.40
22698;DHT22;11516;51.612;7.510;2022-07-26T14:31:09;22.50;90.50
22698;DHT22;11516;51.612;7.510;2022-07-26T14:33:35;22.60;89.60
22698;DHT22;11516;51.612;7.510;2022-07-26T14:36:01;22.90;86.70
22698;DHT22;11516;51.612;7.510;2022-07-26T14:38:26;23.00;85.40
22698;DHT22;11516;51.612;7.510;2022-07-26T14:40:54;22.70;86.00
22698;DHT22;11516;51.612;7.510;2022-07-26T14:43:20;22.60;87.60
22698;DHT22;11516;51.612;7.510;2022-07-26T14:45:45;22.60;87.90
22698;DHT22;11516;51.612;7.510;2022-07-26T14:48:13;22.40;88.60
22698;DHT22;11516;51.612;7.510;2022-07-26T14:50:40;22.00;90.10
22698;DHT22;11516;51.612;7.510;2022-07-26T14:53:06;22.00;90.50
22698;DHT22;11516;51.612;7.510;2022-07-26T14:55:32;21.80;90.10
22698;DHT22;11516;51.612;7.510;2022-07-26T14:57:58;21.40;91.10
22698;DHT22;11516;51.612;7.510;2022-07-26T15:00:23;21.50;90.70
22698;DHT22;11516;51.612;7.510;2022-07-26T15:02:49;21.50;90.90
22698;DHT22;11516;51.612;7.510;2022-07-26T15:05:15;21.30;91.40
22698;DHT22;11516;51.612;7.510;2022-07-26T15:07:42;21.50;92.20
22698;DHT22;11516;51.612;7.510;2022-07-26T15:10:10;21.70;91.10
22698;DHT22;11516;51.612;7.510;2022-07-26T15:12:36;21.40;91.20
22698;DHT22;11516;51.612;7.510;2022-07-26T15:15:02;21.40;92.00
22698;DHT22;11516;51.612;7.510;2022-07-26T15:17:28;22.10;91.40
22698;DHT22;11516;51.612;7.510;2022-07-26T15:19:54;22.80;90.30
22698;DHT22;11516;51.612;7.510;2022-07-26T15:22:20;23.60;87.60
22698;DHT22;11516;51.612;7.510;2022-07-26T15:24:51;23.50;85.60
22698;DHT22;11516;51.612;7.510;2022-07-26T15:27:16;23.10;87.40
22698;DHT22;11516;51.612;7.510;2022-07-26T15:29:42;23.20;87.60
22698;DHT22;11516;51.612;7.510;2022-07-26T15:32:11;23.40;86.00
22698;DHT22;11516;51.612;7.510;2022-07-26T15:34:39;23.20;86.50
22698;DHT22;11516;51.612;7.510;2022-07-26T15:37:05;23.00;87.20
22698;DHT22;11516;51.612;7.510;2022-07-26T15:39:33;22.70;87.70
22698;DHT22;11516;51.612;7.510;2022-07-26T15:42:02;22.40;90.60
22698;DHT22;11516;51.612;7.510;2022-07-26T15:44:28;22.30;90.20
22698;DHT22;11516;51.612;7.510;2022-07-26T15:46:54;22.20;90.30
22698;DHT22;11516;51.612;7.510;2022-07-26T15:49:20;21.90;91.10
22698;DHT22;11516;51.612;7.510;2022-07-26T15:51:46;21.70;91.70
22698;DHT22;11516;51.612;7.510;2022-07-26T15:54:13;21.60;91.70
22698;DHT22;11516;51.612;7.510;2022-07-26T15:56:40;21.50;92.30
22698;DHT22;11516;51.612;7.510;2022-07-26T15:59:06;21.40;92.40